Home > Products > Valid Products > TAF

000
FTUS44 KAMA 012300
TAFGUY
TAF
KGUY 012334Z 0200/0224 19007KT P6SM SKC
     FM020600 35015G22KT P6SM SCT100
     FM020900 35025G35KT P6SM BKN080
     FM022100 35015G22KT P6SM SKC=



000
FTUS44 KAMA 012300
TAFDHT
TAF
KDHT 012334Z 0200/0224 20009KT P6SM SKC
     FM020600 34016G23KT P6SM SCT100
     FM020900 35025G35KT P6SM SCT100
     FM022100 35015G22KT P6SM SKC=



000
FTUS44 KAMA 012300
TAFAMA
TAF
KAMA 012334Z 0200/0224 20009KT P6SM SKC
     FM020900 33015G22KT P6SM SCT100
     FM021200 34024G33KT P6SM SCT100
     FM022100 34016G22KT P6SM SKC=



000
FTUS44 KAMA 011700
TAFGUY
TAF
KGUY 011720Z 0118/0218 VRB07KT P6SM SKC
     FM020800 35018KT P6SM SCT100
     FM021100 35016G25KT P6SM SCT100=



000
FTUS44 KAMA 011700
TAFAMA
TAF
KAMA 011720Z 0118/0218 29008KT P6SM SKC
     FM012000 22011KT P6SM SKC
     FM021000 35014KT P6SM SCT100
     FM021100 35018G28KT P6SM SCT100=



000
FTUS44 KAMA 011700
TAFDHT
TAF
KDHT 011720Z 0118/0218 31008KT P6SM SKC
     FM012100 25008KT P6SM SKC
     FM020800 35016KT P6SM SCT100
     FM021100 35016G25KT P6SM SCT100=



000
FTUS44 KAMA 011100
TAFDHT
TAF
KDHT 011133Z 0112/0212 31008KT P6SM SKC
     FM012100 25008KT P6SM SKC
     FM020800 35016KT P6SM SCT100=



000
FTUS44 KAMA 011100
TAFAMA
TAF
KAMA 011133Z 0112/0212 29008KT P6SM SKC
     FM012000 22011KT P6SM SKC
     FM021000 35014KT P6SM SCT100=



000
FTUS44 KAMA 011100
TAFGUY
TAF
KGUY 011133Z 0112/0212 VRB06KT P6SM SKC
     FM020800 35018KT P6SM SCT100=



000
FTUS44 KAMA 010500
TAFDHT
TAF
KDHT 010520Z 0106/0206 28008KT P6SM SCT200
     FM011100 34010KT P6SM SCT200
     FM012000 19009KT P6SM BKN200
     FM020400 01023G33KT P6SM SCT120 BKN200=



000
FTUS44 KAMA 010500
TAFGUY
TAF
KGUY 010520Z 0106/0206 VRB05KT P6SM SCT200
     FM011200 35010KT P6SM SCT200
     FM012000 18008KT P6SM BKN200
     FM020500 36022G32KT P6SM SCT120 BKN200=



000
FTUS44 KAMA 010500
TAFAMA
TAF
KAMA 010520Z 0106/0206 23008KT P6SM FEW200
     FM011400 30008KT P6SM SCT200
     FM012000 20010KT P6SM SCT200
     FM020100 19009KT P6SM BKN200=



000
FTUS44 KAMA 302300
TAFGUY
TAF
KGUY 302320Z 0100/0124 24008KT P6SM FEW070
     FM010100 VRB05KT P6SM SKC
     FM011200 33008KT P6SM SKC
     FM011600 01010KT P6SM SCT200=



000
FTUS44 KAMA 302300
TAFAMA
TAF
KAMA 302320Z 0100/0124 22015KT P6SM FEW070
     FM010200 23010KT P6SM SKC
     FM011400 30008KT P6SM SKC
     FM012000 25010KT P6SM SCT200=



000
FTUS44 KAMA 302300
TAFDHT
TAF
KDHT 302320Z 0100/0124 23008KT P6SM SKC
     FM011100 34010KT P6SM SKC
     FM012000 24008KT P6SM SCT200=



000
FTUS44 KAMA 301700
TAFAMA
TAF
KAMA 301720Z 3018/0118 22015KT P6SM FEW070
     FM011400 30008KT P6SM SKC=



000
FTUS44 KAMA 301700
TAFGUY
TAF
KGUY 301720Z 3018/0118 24008KT P6SM FEW070
     FM011300 32015KT P6SM SKC=



000
FTUS44 KAMA 301700
TAFDHT
TAF
KDHT 301720Z 3018/0118 23008KT P6SM FEW100
      TEMPO 3018/3020 31008KT
     FM011200 32017KT P6SM SKC=



000
FTUS44 KAMA 301700 AAA
TAFGUY
TAF AMD
KGUY 301701Z 3017/0112 24008KT P6SM FEW070
     FM010100 VRB06KT P6SM SCT200=



000
FTUS44 KAMA 301700 AAA
TAFAMA
TAF AMD
KAMA 301700Z 3017/0112 22015KT P6SM SCT070
     FM010100 18012KT P6SM SCT200
     FM010700 21005KT 6SM BR FEW010=



000
FTUS44 KAMA 301500 AAC
TAFDHT
TAF AMD
KDHT 301502Z 3015/0112 23008KT P6SM FEW100
     FM010400 26010KT P6SM SCT200=



000
FTUS44 KAMA 301200 AAB
TAFDHT
TAF AMD
KDHT 301258Z 3013/0112 22007KT 5SM BR SKC
      TEMPO 3013/3015 2SM BR
     FM301600 22014KT P6SM FEW100
     FM010400 26010KT P6SM SCT200=



000
FTUS44 KAMA 301200 AAA
TAFDHT
TAF AMD
KDHT 301211Z 3012/0112 21010KT 5SM BR SKC
     FM301600 22014KT P6SM FEW100
     FM010400 26010KT P6SM SCT200=



000
FTUS44 KAMA 301100
TAFDHT
TAF
KDHT 301139Z 3012/0112 21010KT P6SM SCT120
     FM301600 22014KT P6SM FEW100
     FM010400 26010KT P6SM SCT200=



000
FTUS44 KAMA 301100
TAFGUY
TAF
KGUY 301139Z 3012/0112 17012KT P6SM SCT070
     FM301500 22013KT P6SM FEW090
     FM010100 VRB06KT P6SM SCT200=



000
FTUS44 KAMA 301100
TAFAMA
TAF
KAMA 301139Z 3012/0112 18012KT P6SM SCT120
     FM301400 20016KT P6SM SCT070
     FM010100 18012KT P6SM SCT200
     FM010700 21005KT 6SM BR FEW010=



000
FTUS44 KAMA 300500
TAFDHT
TAF
KDHT 300520Z 3006/0106 20010KT P6SM SCT050 BKN100
     FM300800 21010KT P6SM SCT120
     FM301600 22014KT P6SM FEW100
     FM010400 26010KT P6SM SCT200=



000
FTUS44 KAMA 300500
TAFGUY
TAF
KGUY 300520Z 3006/0106 18014KT P6SM SCT040 BKN090
     FM300800 20012KT P6SM SCT120
     FM301500 22013KT P6SM FEW090
     FM010100 15008KT P6SM SCT200=



000
FTUS44 KAMA 300500
TAFAMA
TAF
KAMA 300520Z 3006/0106 17013KT P6SM SCT050 BKN120
      TEMPO 3006/3010 3SM -TSRA BR OVC040CB
     FM301000 18012KT P6SM SCT120
     FM301400 20016KT P6SM SCT080
     FM010100 18012KT P6SM SCT200=



000
FTUS44 KAMA 300200 AAB
TAFDHT
TAF AMD
KDHT 300243Z 3003/3024 17012KT P6SM VCTS BKN050CB
      TEMPO 3003/3005 4SM -TSRA OVC030CB
     FM300800 21010KT P6SM SCT120
     FM301600 22015KT P6SM SCT100=



000
FTUS44 KAMA 300100 AAA
TAFDHT
TAF AMD
KDHT 300102Z 3001/3024 17019G28KT P6SM VCTS BKN050CB
      TEMPO 3001/3005 VRB35G45KT 1SM -TSRA OVC030CB
     FM300800 21010KT P6SM SCT120
     FM301600 22015KT P6SM SCT100=



000
FTUS44 KAMA 292300
TAFDHT
TAF
KDHT 292320Z 3000/3024 17019G28KT P6SM SCT070
     FM300100 18018KT P6SM VCTS BKN050CB
      TEMPO 3001/3005 3SM -TSRA OVC030CB
     FM300800 21010KT P6SM SCT120
     FM301600 22015KT P6SM SCT100=



000
FTUS44 KAMA 292300
TAFAMA
TAF
KAMA 292320Z 3000/3024 17017G27KT P6SM SCT050
     FM300500 18016KT P6SM VCTS SCT050CB BKN120
     FM301000 18012KT P6SM SCT120
     FM301400 21014G24KT P6SM SCT080=



000
FTUS44 KAMA 292300
TAFGUY
TAF
KGUY 292320Z 3000/3024 18018G28KT P6SM BKN060
     FM300200 18014KT P6SM VCTS BKN060CB
      TEMPO 3002/3006 3SM -TSRA OVC040CB
     FM300800 20012KT P6SM SCT100
     FM301500 22013KT P6SM SCT090=



000
FTUS44 KAMA 292100 AAA
TAFDHT
TAF AMD
KDHT 292105Z 2921/3018 17020G28KT P6SM BKN050
     FM300100 18018KT P6SM VCTS BKN050CB
      TEMPO 3001/3005 3SM -TSRA OVC030CB
     FM300600 20010KT P6SM BKN040=



000
FTUS44 KAMA 291700
TAFDHT
TAF
KDHT 291726Z 2918/3018 19020G28KT P6SM BKN050
     FM300100 18018KT P6SM VCTS BKN050CB
      TEMPO 3001/3005 3SM -TSRA OVC030CB
     FM300600 20010KT P6SM BKN040=



000
FTUS44 KAMA 291700
TAFAMA
TAF
KAMA 291726Z 2918/3018 18014G22KT P6SM SCT040
     FM300200 17015KT P6SM VCTS SCT050CB OVC150
     FM301000 18010KT P6SM SCT100=



000
FTUS44 KAMA 291700
TAFGUY
TAF
KGUY 291726Z 2918/3018 18018G28KT P6SM SCT050
     FM300200 17018KT P6SM VCTS BKN060CB
      TEMPO 3002/3006 3SM -TSRA OVC040CB
     FM300700 19012KT P6SM BKN050=



000
FTUS44 KAMA 291100
TAFDHT
TAF
KDHT 291139Z 2912/3012 17008KT 6SM BR BKN035
     FM291500 19015KT P6SM BKN040
     FM291900 17020G28KT P6SM BKN050
     FM300100 18016KT P6SM VCTS BKN050CB
     FM300600 20010KT P6SM BKN040=



000
FTUS44 KAMA 291100
TAFGUY
TAF
KGUY 291139Z 2912/3012 18007KT 6SM BR FEW100
     FM291500 18015KT P6SM SCT040
     FM291900 17018G25KT P6SM SCT050
     FM300300 17015KT P6SM VCTS BKN060CB
     FM300700 19012KT P6SM BKN050=



000
FTUS44 KAMA 291100
TAFAMA
TAF
KAMA 291139Z 2912/3012 17008KT 6SM BR SKC
     FM291500 18014KT P6SM FEW040
     FM291900 17018G24KT P6SM SCT050
     FM300200 17014KT P6SM BKN070
     FM300800 19011KT P6SM BKN070=



000
FTUS44 KAMA 290500
TAFAMA
TAF
KAMA 290520Z 2906/3006 17010KT P6SM SKC
     FM291000 18008KT 6SM BR SKC
     FM291500 18014KT P6SM FEW040
     FM291900 17018G24KT P6SM SCT050
     FM300200 17014KT P6SM BKN070=



000
FTUS44 KAMA 290500
TAFDHT
TAF
KDHT 290520Z 2906/3006 17010KT P6SM FEW100
     FM291000 19008KT 6SM BR BKN035
     FM291500 19015KT P6SM BKN040
     FM291900 17020G28KT P6SM BKN050
     FM300100 18016KT P6SM VCTS BKN050CB=



000
FTUS44 KAMA 290500
TAFGUY
TAF
KGUY 290520Z 2906/3006 17010KT P6SM SKC
     FM291000 18007KT 6SM BR FEW100
     FM291500 18015KT P6SM SCT040
     FM291900 17018G25KT P6SM SCT050
     FM300300 17015KT P6SM VCTS BKN060CB=



    US Dept of Commerce
    National Oceanic and Atmospheric Administration
    National Weather Service
    1325 East West Highway
    Silver Spring, MD 20910
    Page Author: NWS Internet Services Team
Disclaimer
Information Quality
Credits
Glossary
Privacy Policy
Freedom of Information Act (FOIA)
About Us
Career Opportunities